EST,Max TemperatureF,Mean TemperatureF,Min TemperatureF,Max Dew PointF,MeanDew PointF,Min DewpointF,Max Humidity, Mean Humidity, Min Humidity, Max Sea Level PressureIn, Mean Sea Level PressureIn, Min Sea Level PressureIn, Max VisibilityMiles, Mean VisibilityMiles, Min VisibilityMiles, Max Wind SpeedMPH, Mean Wind SpeedMPH, Max Gust SpeedMPH,PrecipitationIn, CloudCover, Events, WindDirDegrees
2012-1-1,53,40,28,44,37,25,96,84,52,30.10,29.87,29.68,10,6,1,10,2,16,0.07,4,Rain,187
2012-1-2,44,36,28,30,18,13,69,47,35,29.83,29.77,29.71,10,10,10,13,7,25,0.00,2,,279
2012-1-3,30,22,14,19,4,-6,69,44,29,30.18,29.98,29.83,10,10,10,20,8,30,0.00,1,,320
2012-1-4,26,18,10,11,3,-3,59,49,38,30.26,30.13,29.98,10,10,10,10,5,,0.00,1,,281
2012-1-5,39,31,23,20,18,14,85,62,41,29.98,29.93,29.87,10,10,10,10,2,21,0.00,5,,288
2012-1-6,54,38,23,28,24,19,89,71,34,29.95,29.84,29.74,10,10,9,7,1,,0.00,1,,193
2012-1-7,63,44,24,36,28,21,88,60,34,29.99,29.81,29.71,10,10,10,10,1,20,0.00,0,,276
2012-1-8,46,36,26,27,22,17,86,60,39,30.33,30.19,30.01,10,10,10,12,2,17,0.00,1,,332
2012-1-9,41,32,24,23,19,14,84,63,35,30.33,30.20,29.98,10,10,10,6,1,,0.00,2,,170
2012-1-10,46,34,23,28,24,19,92,65,44,30.01,29.95,29.88,10,9,4,12,2,21,0.00,4,,297
2012-1-11,48,34,21,39,27,17,93,75,42,30.11,29.98,29.77,10,9,4,7,2,,0.25,3,Rain,103
2012-1-12,46,44,41,45,41,39,100,91,81,29.74,29.51,29.42,10,5,1,14,6,26,1.02,8,Rain,62
2012-1-13,46,37,28,45,28,11,100,73,47,29.84,29.50,29.23,10,8,2,15,5,30,0.06,6,Rain-Snow,248
2012-1-14,32,28,24,21,15,12,78,57,44,30.09,29.98,29.86,10,10,2,10,7,26,0.00,6,Snow,296
2012-1-15,26,20,12,19,1,-4,74,45,29,30.59,30.37,30.09,10,10,10,15,8,24,0.00,1,,330
2012-1-16,35,22,10,29,10,3,85,58,31,30.61,30.45,30.16,10,10,9,10,2,17,0.02,2,Rain,182
2012-1-17,50,40,32,45,35,29,100,92,83,30.13,29.82,29.54,10,2,0,7,0,,0.18,7,Fog-Rain,190
2012-1-18,52,38,19,45,16,7,80,45,32,30.19,29.94,29.57,10,10,10,21,10,33,0.00,1,,314
2012-1-19,33,22,12,22,15,8,84,65,48,30.25,30.12,29.94,10,10,10,8,2,,0.00,3,,122
2012-1-20,32,28,24,22,10,3,72,48,31,30.29,30.17,29.94,10,10,10,15,4,23,0.00,3,,328
2012-1-21,28,24,19,21,17,8,86,77,45,30.32,30.11,29.99,10,5,0,9,4,,0.00,7,Fog-Snow,19
2012-1-22,30,20,10,25,15,5,81,69,56,30.53,30.46,30.36,10,10,10,8,3,,0.13,5,,33
2012-1-23,48,39,30,48,35,27,100,93,81,30.40,30.10,29.88,10,3,0,7,2,,0.47,8,Fog-Rain,13
2012-1-24,51,43,35,46,36,28,100,79,52,30.14,30.00,29.89,10,7,0,9,3,20,0.01,4,Fog,275
2012-1-25,46,40,34,28,25,23,73,58,44,30.32,30.24,30.15,10,10,10,14,6,18,0.00,4,,327
2012-1-26,37,34,32,36,33,25,93,89,67,30.24,30.06,29.80,10,4,2,5,2,,0.31,8,Rain-Snow,51
2012-1-27,55,46,37,52,41,29,100,88,55,29.87,29.52,29.35,10,4,0,13,3,30,0.34,7,Fog-Rain,309
2012-1-28,46,37,28,29,25,16,89,59,36,30.05,29.97,29.88,10,10,10,9,4,25,0.00,2,,228
2012-1-29,44,36,27,22,14,9,74,42,30,30.19,30.11,30.03,10,10,9,10,5,,0.00,1,,269
2012-1-30,39,32,26,27,16,10,72,48,30,30.30,30.22,30.04,10,10,10,13,5,24,0.00,3,,281
2012-1-31,61,44,26,30,26,19,82,58,28,30.24,30.11,30.02,10,10,10,9,1,17,0.00,1,,236